sensor_id;sensor_type;location;lat;lon;timestamp;P1;durP1;ratioP1;P2;durP2;ratioP2
29940;SDS011;16801;53.562;10.038;2023-08-12T00:01:45;3.90;;;2.25;;
29940;SDS011;16801;53.562;10.038;2023-08-12T00:05:07;2.95;;;2.50;;
29940;SDS011;16801;53.562;10.038;2023-08-12T00:08:30;2.47;;;2.28;;
29940;SDS011;16801;53.562;10.038;2023-08-12T00:11:51;2.38;;;1.77;;
29940;SDS011;16801;53.562;10.038;2023-08-12T00:15:12;1.60;;;1.50;;
29940;SDS011;16801;53.562;10.038;2023-08-12T00:18:33;2.50;;;2.30;;
29940;SDS011;16801;53.562;10.038;2023-08-12T00:21:57;2.53;;;2.03;;
29940;SDS011;16801;53.562;10.038;2023-08-12T00:25:18;4.68;;;2.47;;
29940;SDS011;16801;53.562;10.038;2023-08-12T00:28:39;2.28;;;1.83;;
29940;SDS011;16801;53.562;10.038;2023-08-12T00:32:00;2.55;;;1.95;;
29940;SDS011;16801;53.562;10.038;2023-08-12T00:35:21;2.30;;;2.10;;
29940;SDS011;16801;53.562;10.038;2023-08-12T00:38:43;2.33;;;2.13;;
29940;SDS011;16801;53.562;10.038;2023-08-12T00:42:04;2.17;;;1.98;;
29940;SDS011;16801;53.562;10.038;2023-08-12T00:45:25;3.63;;;1.83;;
29940;SDS011;16801;53.562;10.038;2023-08-12T00:48:46;5.65;;;2.08;;
29940;SDS011;16801;53.562;10.038;2023-08-12T00:52:07;2.15;;;1.95;;
29940;SDS011;16801;53.562;10.038;2023-08-12T00:55:29;3.20;;;2.15;;
29940;SDS011;16801;53.562;10.038;2023-08-12T00:58:52;3.08;;;2.45;;
29940;SDS011;16801;53.562;10.038;2023-08-12T01:02:13;2.05;;;1.85;;
29940;SDS011;16801;53.562;10.038;2023-08-12T01:05:34;5.82;;;2.35;;
29940;SDS011;16801;53.562;10.038;2023-08-12T01:08:54;2.03;;;1.83;;
29940;SDS011;16801;53.562;10.038;2023-08-12T01:12:18;2.38;;;2.17;;
29940;SDS011;16801;53.562;10.038;2023-08-12T01:15:45;2.78;;;2.17;;
29940;SDS011;16801;53.562;10.038;2023-08-12T01:19:10;6.63;;;2.85;;
29940;SDS011;16801;53.562;10.038;2023-08-12T01:22:40;2.50;;;1.95;;
29940;SDS011;16801;53.562;10.038;2023-08-12T01:26:02;4.25;;;2.78;;
29940;SDS011;16801;53.562;10.038;2023-08-12T01:29:23;5.38;;;2.20;;
29940;SDS011;16801;53.562;10.038;2023-08-12T01:32:47;5.53;;;2.28;;
29940;SDS011;16801;53.562;10.038;2023-08-12T01:36:15;2.40;;;1.70;;
29940;SDS011;16801;53.562;10.038;2023-08-12T01:39:38;2.53;;;1.65;;
29940;SDS011;16801;53.562;10.038;2023-08-12T01:43:02;3.45;;;2.45;;
29940;SDS011;16801;53.562;10.038;2023-08-12T01:46:25;2.47;;;1.58;;
29940;SDS011;16801;53.562;10.038;2023-08-12T01:49:46;1.95;;;1.80;;
29940;SDS011;16801;53.562;10.038;2023-08-12T01:53:07;2.63;;;2.03;;
29940;SDS011;16801;53.562;10.038;2023-08-12T01:56:28;4.03;;;1.75;;
29940;SDS011;16801;53.562;10.038;2023-08-12T01:59:50;3.80;;;2.80;;
29940;SDS011;16801;53.562;10.038;2023-08-12T02:03:11;2.65;;;1.92;;
29940;SDS011;16801;53.562;10.038;2023-08-12T02:06:32;6.30;;;1.80;;
29940;SDS011;16801;53.562;10.038;2023-08-12T02:09:53;3.22;;;3.03;;
29940;SDS011;16801;53.562;10.038;2023-08-12T02:13:14;2.20;;;2.00;;
29940;SDS011;16801;53.562;10.038;2023-08-12T02:16:36;3.50;;;2.42;;
29940;SDS011;16801;53.562;10.038;2023-08-12T02:19:57;2.47;;;1.88;;
29940;SDS011;16801;53.562;10.038;2023-08-12T02:23:18;4.45;;;2.10;;
29940;SDS011;16801;53.562;10.038;2023-08-12T02:26:39;3.60;;;2.40;;
29940;SDS011;16801;53.562;10.038;2023-08-12T02:30:00;3.15;;;2.22;;
29940;SDS011;16801;53.562;10.038;2023-08-12T02:33:27;3.30;;;2.85;;
29940;SDS011;16801;53.562;10.038;2023-08-12T02:36:47;1.80;;;1.60;;
29940;SDS011;16801;53.562;10.038;2023-08-12T02:40:09;4.43;;;2.17;;
29940;SDS011;16801;53.562;10.038;2023-08-12T02:43:31;4.18;;;2.38;;
29940;SDS011;16801;53.562;10.038;2023-08-12T02:46:52;2.30;;;2.10;;
29940;SDS011;16801;53.562;10.038;2023-08-12T02:50:14;3.88;;;2.20;;
29940;SDS011;16801;53.562;10.038;2023-08-12T02:53:35;2.95;;;1.90;;
29940;SDS011;16801;53.562;10.038;2023-08-12T02:56:55;2.55;;;2.20;;
29940;SDS011;16801;53.562;10.038;2023-08-12T03:00:17;2.83;;;2.03;;
29940;SDS011;16801;53.562;10.038;2023-08-12T03:03:38;3.72;;;2.47;;
29940;SDS011;16801;53.562;10.038;2023-08-12T03:07:00;1.90;;;1.80;;
29940;SDS011;16801;53.562;10.038;2023-08-12T03:10:22;3.33;;;2.20;;
29940;SDS011;16801;53.562;10.038;2023-08-12T03:13:43;4.07;;;2.70;;
29940;SDS011;16801;53.562;10.038;2023-08-12T03:17:04;2.30;;;2.13;;
29940;SDS011;16801;53.562;10.038;2023-08-12T03:20:26;2.80;;;2.22;;
29940;SDS011;16801;53.562;10.038;2023-08-12T03:23:48;5.03;;;2.40;;
29940;SDS011;16801;53.562;10.038;2023-08-12T03:27:09;3.13;;;2.83;;
29940;SDS011;16801;53.562;10.038;2023-08-12T03:30:31;8.00;;;5.88;;
29940;SDS011;16801;53.562;10.038;2023-08-12T03:33:52;2.88;;;2.63;;
29940;SDS011;16801;53.562;10.038;2023-08-12T03:37:13;3.42;;;2.88;;
29940;SDS011;16801;53.562;10.038;2023-08-12T03:40:38;3.67;;;2.95;;
29940;SDS011;16801;53.562;10.038;2023-08-12T03:44:00;3.38;;;2.35;;
29940;SDS011;16801;53.562;10.038;2023-08-12T03:47:21;4.78;;;3.25;;
29940;SDS011;16801;53.562;10.038;2023-08-12T03:50:43;3.00;;;2.70;;
29940;SDS011;16801;53.562;10.038;2023-08-12T03:54:06;5.38;;;2.40;;
29940;SDS011;16801;53.562;10.038;2023-08-12T03:57:29;3.65;;;2.50;;
29940;SDS011;16801;53.562;10.038;2023-08-12T04:00:51;3.03;;;1.88;;
29940;SDS011;16801;53.562;10.038;2023-08-12T04:04:12;3.90;;;3.05;;
29940;SDS011;16801;53.562;10.038;2023-08-12T04:07:33;3.30;;;2.75;;
29940;SDS011;16801;53.562;10.038;2023-08-12T04:10:54;3.38;;;2.67;;
29940;SDS011;16801;53.562;10.038;2023-08-12T04:14:16;3.03;;;2.72;;
29940;SDS011;16801;53.562;10.038;2023-08-12T04:17:37;4.03;;;2.63;;
29940;SDS011;16801;53.562;10.038;2023-08-12T04:20:59;4.25;;;3.17;;
29940;SDS011;16801;53.562;10.038;2023-08-12T04:24:21;3.92;;;2.72;;
29940;SDS011;16801;53.562;10.038;2023-08-12T04:27:41;3.03;;;2.83;;
29940;SDS011;16801;53.562;10.038;2023-08-12T04:31:05;2.80;;;2.42;;
29940;SDS011;16801;53.562;10.038;2023-08-12T04:34:27;5.28;;;4.63;;
29940;SDS011;16801;53.562;10.038;2023-08-12T04:37:48;3.22;;;2.95;;
29940;SDS011;16801;53.562;10.038;2023-08-12T04:41:09;5.68;;;2.50;;
29940;SDS011;16801;53.562;10.038;2023-08-12T04:44:30;2.28;;;2.13;;
29940;SDS011;16801;53.562;10.038;2023-08-12T04:47:52;2.53;;;2.30;;
29940;SDS011;16801;53.562;10.038;2023-08-12T04:51:13;1.98;;;1.85;;
29940;SDS011;16801;53.562;10.038;2023-08-12T04:54:35;3.20;;;3.00;;
29940;SDS011;16801;53.562;10.038;2023-08-12T04:57:55;3.17;;;2.88;;
29940;SDS011;16801;53.562;10.038;2023-08-12T05:01:16;2.47;;;2.25;;
29940;SDS011;16801;53.562;10.038;2023-08-12T05:04:39;5.03;;;2.50;;
29940;SDS011;16801;53.562;10.038;2023-08-12T05:08:02;2.65;;;2.45;;
29940;SDS011;16801;53.562;10.038;2023-08-12T05:11:26;3.30;;;2.75;;
29940;SDS011;16801;53.562;10.038;2023-08-12T05:14:47;2.50;;;2.30;;
29940;SDS011;16801;53.562;10.038;2023-08-12T05:18:10;5.18;;;2.88;;
29940;SDS011;16801;53.562;10.038;2023-08-12T05:21:32;6.50;;;3.45;;
29940;SDS011;16801;53.562;10.038;2023-08-12T05:24:53;4.20;;;2.90;;
29940;SDS011;16801;53.562;10.038;2023-08-12T05:28:16;7.53;;;2.53;;
29940;SDS011;16801;53.562;10.038;2023-08-12T05:31:37;2.95;;;2.75;;
29940;SDS011;16801;53.562;10.038;2023-08-12T05:34:58;2.85;;;2.58;;
29940;SDS011;16801;53.562;10.038;2023-08-12T05:38:20;6.65;;;3.40;;
29940;SDS011;16801;53.562;10.038;2023-08-12T05:41:42;2.70;;;2.42;;
29940;SDS011;16801;53.562;10.038;2023-08-12T05:45:04;4.35;;;3.03;;
29940;SDS011;16801;53.562;10.038;2023-08-12T05:48:25;2.80;;;2.58;;
29940;SDS011;16801;53.562;10.038;2023-08-12T05:51:46;2.70;;;2.50;;
29940;SDS011;16801;53.562;10.038;2023-08-12T05:55:08;7.28;;;3.08;;
29940;SDS011;16801;53.562;10.038;2023-08-12T05:58:29;4.35;;;2.90;;
29940;SDS011;16801;53.562;10.038;2023-08-12T06:01:50;4.03;;;3.17;;
29940;SDS011;16801;53.562;10.038;2023-08-12T06:05:10;7.88;;;6.63;;
29940;SDS011;16801;53.562;10.038;2023-08-12T06:08:31;9.07;;;4.45;;
29940;SDS011;16801;53.562;10.038;2023-08-12T06:11:53;5.93;;;3.28;;
29940;SDS011;16801;53.562;10.038;2023-08-12T06:15:14;5.03;;;4.35;;
29940;SDS011;16801;53.562;10.038;2023-08-12T06:18:35;3.60;;;2.92;;
29940;SDS011;16801;53.562;10.038;2023-08-12T06:21:56;4.22;;;3.53;;
29940;SDS011;16801;53.562;10.038;2023-08-12T06:25:17;4.47;;;3.92;;
29940;SDS011;16801;53.562;10.038;2023-08-12T06:28:39;3.53;;;3.20;;
29940;SDS011;16801;53.562;10.038;2023-08-12T06:32:00;3.33;;;3.08;;
29940;SDS011;16801;53.562;10.038;2023-08-12T06:35:21;4.30;;;3.90;;
29940;SDS011;16801;53.562;10.038;2023-08-12T06:38:42;4.07;;;3.47;;
29940;SDS011;16801;53.562;10.038;2023-08-12T06:42:03;5.55;;;3.92;;
29940;SDS011;16801;53.562;10.038;2023-08-12T06:45:25;4.30;;;3.90;;
29940;SDS011;16801;53.562;10.038;2023-08-12T06:48:46;4.50;;;4.10;;
29940;SDS011;16801;53.562;10.038;2023-08-12T06:52:07;6.20;;;3.53;;
29940;SDS011;16801;53.562;10.038;2023-08-12T06:55:28;7.85;;;3.53;;
29940;SDS011;16801;53.562;10.038;2023-08-12T06:58:49;5.40;;;3.85;;
29940;SDS011;16801;53.562;10.038;2023-08-12T07:02:11;3.78;;;3.47;;
29940;SDS011;16801;53.562;10.038;2023-08-12T07:05:32;4.53;;;4.05;;
29940;SDS011;16801;53.562;10.038;2023-08-12T07:08:53;5.68;;;5.15;;
29940;SDS011;16801;53.562;10.038;2023-08-12T07:12:15;5.90;;;4.15;;
29940;SDS011;16801;53.562;10.038;2023-08-12T07:15:36;5.38;;;3.85;;
29940;SDS011;16801;53.562;10.038;2023-08-12T07:19:00;5.03;;;4.40;;
29940;SDS011;16801;53.562;10.038;2023-08-12T07:22:21;4.93;;;3.88;;
29940;SDS011;16801;53.562;10.038;2023-08-12T07:25:41;5.13;;;4.63;;
29940;SDS011;16801;53.562;10.038;2023-08-12T07:29:02;5.40;;;5.00;;
29940;SDS011;16801;53.562;10.038;2023-08-12T07:32:23;6.82;;;5.32;;
29940;SDS011;16801;53.562;10.038;2023-08-12T07:35:48;6.72;;;6.00;;
29940;SDS011;16801;53.562;10.038;2023-08-12T07:39:09;5.88;;;5.28;;
29940;SDS011;16801;53.562;10.038;2023-08-12T07:42:30;5.05;;;4.38;;
29940;SDS011;16801;53.562;10.038;2023-08-12T07:45:51;5.45;;;4.97;;
29940;SDS011;16801;53.562;10.038;2023-08-12T07:49:13;7.40;;;6.20;;
29940;SDS011;16801;53.562;10.038;2023-08-12T07:52:35;6.05;;;5.55;;
29940;SDS011;16801;53.562;10.038;2023-08-12T07:55:56;7.38;;;4.55;;
29940;SDS011;16801;53.562;10.038;2023-08-12T07:59:17;6.65;;;5.28;;
29940;SDS011;16801;53.562;10.038;2023-08-12T08:02:38;5.80;;;5.15;;
29940;SDS011;16801;53.562;10.038;2023-08-12T08:05:59;5.32;;;4.78;;
29940;SDS011;16801;53.562;10.038;2023-08-12T08:09:21;5.97;;;5.45;;
29940;SDS011;16801;53.562;10.038;2023-08-12T08:12:42;11.18;;;6.60;;
29940;SDS011;16801;53.562;10.038;2023-08-12T08:16:02;7.43;;;6.75;;
29940;SDS011;16801;53.562;10.038;2023-08-12T08:19:25;10.35;;;6.30;;
29940;SDS011;16801;53.562;10.038;2023-08-12T08:22:46;7.30;;;4.65;;
29940;SDS011;16801;53.562;10.038;2023-08-12T08:26:08;6.20;;;5.60;;
29940;SDS011;16801;53.562;10.038;2023-08-12T08:29:29;8.55;;;6.70;;
29940;SDS011;16801;53.562;10.038;2023-08-12T08:32:50;6.82;;;6.13;;
29940;SDS011;16801;53.562;10.038;2023-08-12T08:36:11;7.28;;;6.65;;
29940;SDS011;16801;53.562;10.038;2023-08-12T08:39:32;6.15;;;5.55;;
29940;SDS011;16801;53.562;10.038;2023-08-12T08:42:54;4.70;;;4.30;;
29940;SDS011;16801;53.562;10.038;2023-08-12T08:46:23;5.95;;;5.35;;
29940;SDS011;16801;53.562;10.038;2023-08-12T08:49:44;6.13;;;5.53;;
29940;SDS011;16801;53.562;10.038;2023-08-12T08:53:05;7.18;;;6.13;;
29940;SDS011;16801;53.562;10.038;2023-08-12T08:56:27;6.60;;;5.53;;
29940;SDS011;16801;53.562;10.038;2023-08-12T08:59:50;8.35;;;5.53;;
29940;SDS011;16801;53.562;10.038;2023-08-12T09:03:10;7.07;;;6.25;;
29940;SDS011;16801;53.562;10.038;2023-08-12T09:06:33;8.65;;;6.10;;
29940;SDS011;16801;53.562;10.038;2023-08-12T09:09:56;7.13;;;5.75;;
29940;SDS011;16801;53.562;10.038;2023-08-12T09:13:19;6.28;;;5.50;;
29940;SDS011;16801;53.562;10.038;2023-08-12T09:16:42;8.25;;;7.25;;
29940;SDS011;16801;53.562;10.038;2023-08-12T09:20:03;7.07;;;5.75;;
29940;SDS011;16801;53.562;10.038;2023-08-12T09:23:33;6.32;;;5.70;;
29940;SDS011;16801;53.562;10.038;2023-08-12T09:26:55;6.88;;;6.18;;
29940;SDS011;16801;53.562;10.038;2023-08-12T09:30:16;5.78;;;5.25;;
29940;SDS011;16801;53.562;10.038;2023-08-12T09:33:39;7.13;;;6.32;;
29940;SDS011;16801;53.562;10.038;2023-08-12T09:37:00;7.35;;;5.88;;
29940;SDS011;16801;53.562;10.038;2023-08-12T09:40:21;5.97;;;5.40;;
29940;SDS011;16801;53.562;10.038;2023-08-12T09:43:42;6.00;;;5.03;;
29940;SDS011;16801;53.562;10.038;2023-08-12T09:47:03;6.10;;;5.50;;
29940;SDS011;16801;53.562;10.038;2023-08-12T09:50:27;5.80;;;5.20;;
29940;SDS011;16801;53.562;10.038;2023-08-12T09:53:49;7.60;;;6.50;;
29940;SDS011;16801;53.562;10.038;2023-08-12T09:57:10;8.48;;;7.25;;
29940;SDS011;16801;53.562;10.038;2023-08-12T10:00:34;7.10;;;6.32;;
29940;SDS011;16801;53.562;10.038;2023-08-12T10:03:56;8.25;;;7.43;;
29940;SDS011;16801;53.562;10.038;2023-08-12T10:07:19;8.63;;;7.72;;
29940;SDS011;16801;53.562;10.038;2023-08-12T10:10:42;8.18;;;7.32;;
29940;SDS011;16801;53.562;10.038;2023-08-12T10:14:03;20.10;;;8.23;;
29940;SDS011;16801;53.562;10.038;2023-08-12T10:17:25;6.05;;;5.55;;
29940;SDS011;16801;53.562;10.038;2023-08-12T10:20:46;5.95;;;5.45;;
29940;SDS011;16801;53.562;10.038;2023-08-12T10:24:09;6.85;;;6.10;;
29940;SDS011;16801;53.562;10.038;2023-08-12T10:27:31;8.40;;;5.65;;
29940;SDS011;16801;53.562;10.038;2023-08-12T10:30:52;6.25;;;5.00;;
29940;SDS011;16801;53.562;10.038;2023-08-12T10:34:19;5.00;;;4.03;;
29940;SDS011;16801;53.562;10.038;2023-08-12T10:37:41;4.97;;;3.92;;
29940;SDS011;16801;53.562;10.038;2023-08-12T10:41:19;3.95;;;3.65;;
29940;SDS011;16801;53.562;10.038;2023-08-12T10:44:48;4.15;;;3.53;;
29940;SDS011;16801;53.562;10.038;2023-08-12T10:48:15;5.50;;;5.00;;
29940;SDS011;16801;53.562;10.038;2023-08-12T10:51:39;9.43;;;3.70;;
29940;SDS011;16801;53.562;10.038;2023-08-12T10:55:15;4.60;;;4.20;;
29940;SDS011;16801;53.562;10.038;2023-08-12T10:58:44;5.00;;;4.28;;
29940;SDS011;16801;53.562;10.038;2023-08-12T11:02:07;5.05;;;4.13;;
29940;SDS011;16801;53.562;10.038;2023-08-12T11:05:35;6.70;;;4.07;;
29940;SDS011;16801;53.562;10.038;2023-08-12T11:08:57;3.78;;;3.38;;
29940;SDS011;16801;53.562;10.038;2023-08-12T11:12:21;5.30;;;4.00;;
29940;SDS011;16801;53.562;10.038;2023-08-12T11:15:51;3.47;;;3.17;;
29940;SDS011;16801;53.562;10.038;2023-08-12T11:19:11;4.35;;;3.03;;
29940;SDS011;16801;53.562;10.038;2023-08-12T11:22:35;5.57;;;3.08;;
29940;SDS011;16801;53.562;10.038;2023-08-12T11:25:57;4.65;;;3.13;;
29940;SDS011;16801;53.562;10.038;2023-08-12T11:29:18;3.47;;;3.20;;
29940;SDS011;16801;53.562;10.038;2023-08-12T11:32:41;3.78;;;3.33;;
29940;SDS011;16801;53.562;10.038;2023-08-12T11:36:03;4.07;;;3.38;;
29940;SDS011;16801;53.562;10.038;2023-08-12T11:39:24;2.47;;;2.28;;
29940;SDS011;16801;53.562;10.038;2023-08-12T11:42:45;9.23;;;3.75;;
29940;SDS011;16801;53.562;10.038;2023-08-12T11:46:07;3.92;;;3.33;;
29940;SDS011;16801;53.562;10.038;2023-08-12T11:49:29;4.85;;;3.45;;
29940;SDS011;16801;53.562;10.038;2023-08-12T11:52:51;3.78;;;3.17;;
29940;SDS011;16801;53.562;10.038;2023-08-12T11:56:13;3.92;;;3.63;;
29940;SDS011;16801;53.562;10.038;2023-08-12T11:59:33;2.55;;;2.35;;
29940;SDS011;16801;53.562;10.038;2023-08-12T12:02:55;3.33;;;2.92;;
29940;SDS011;16801;53.562;10.038;2023-08-12T12:06:18;3.92;;;3.35;;
29940;SDS011;16801;53.562;10.038;2023-08-12T12:09:50;3.20;;;2.90;;
29940;SDS011;16801;53.562;10.038;2023-08-12T12:13:18;3.47;;;3.17;;
29940;SDS011;16801;53.562;10.038;2023-08-12T12:16:40;4.03;;;3.30;;
29940;SDS011;16801;53.562;10.038;2023-08-12T12:20:02;4.53;;;3.30;;
29940;SDS011;16801;53.562;10.038;2023-08-12T12:23:29;3.67;;;3.38;;
29940;SDS011;16801;53.562;10.038;2023-08-12T12:26:51;3.35;;;3.03;;
29940;SDS011;16801;53.562;10.038;2023-08-12T12:30:13;4.70;;;2.92;;
29940;SDS011;16801;53.562;10.038;2023-08-12T12:33:34;4.57;;;3.75;;
29940;SDS011;16801;53.562;10.038;2023-08-12T12:36:55;3.85;;;3.55;;
29940;SDS011;16801;53.562;10.038;2023-08-12T12:40:17;3.22;;;2.92;;
29940;SDS011;16801;53.562;10.038;2023-08-12T12:43:38;4.82;;;3.97;;
29940;SDS011;16801;53.562;10.038;2023-08-12T12:46:59;3.75;;;3.45;;
29940;SDS011;16801;53.562;10.038;2023-08-12T12:50:20;4.63;;;4.18;;
29940;SDS011;16801;53.562;10.038;2023-08-12T12:53:41;4.63;;;3.70;;
29940;SDS011;16801;53.562;10.038;2023-08-12T12:57:03;3.85;;;3.55;;
29940;SDS011;16801;53.562;10.038;2023-08-12T13:00:24;4.88;;;4.47;;
29940;SDS011;16801;53.562;10.038;2023-08-12T13:03:45;5.00;;;4.68;;
29940;SDS011;16801;53.562;10.038;2023-08-12T13:07:09;5.05;;;4.65;;
29940;SDS011;16801;53.562;10.038;2023-08-12T13:10:30;5.55;;;4.10;;
29940;SDS011;16801;53.562;10.038;2023-08-12T13:13:52;4.90;;;4.30;;
29940;SDS011;16801;53.562;10.038;2023-08-12T13:17:13;4.68;;;4.28;;
29940;SDS011;16801;53.562;10.038;2023-08-12T13:20:34;5.40;;;4.90;;
29940;SDS011;16801;53.562;10.038;2023-08-12T13:23:55;5.03;;;4.53;;
29940;SDS011;16801;53.562;10.038;2023-08-12T13:27:16;3.97;;;3.67;;
29940;SDS011;16801;53.562;10.038;2023-08-12T13:30:38;6.38;;;5.25;;
29940;SDS011;16801;53.562;10.038;2023-08-12T13:33:59;6.03;;;5.53;;
29940;SDS011;16801;53.562;10.038;2023-08-12T13:37:23;6.60;;;6.00;;
29940;SDS011;16801;53.562;10.038;2023-08-12T13:40:44;5.53;;;4.55;;
29940;SDS011;16801;53.562;10.038;2023-08-12T13:44:05;5.00;;;4.60;;
29940;SDS011;16801;53.562;10.038;2023-08-12T13:47:27;6.10;;;5.50;;
29940;SDS011;16801;53.562;10.038;2023-08-12T13:50:48;7.20;;;6.50;;
29940;SDS011;16801;53.562;10.038;2023-08-12T13:54:11;9.02;;;7.30;;
29940;SDS011;16801;53.562;10.038;2023-08-12T13:57:32;7.43;;;5.20;;
29940;SDS011;16801;53.562;10.038;2023-08-12T14:00:52;5.53;;;5.07;;
29940;SDS011;16801;53.562;10.038;2023-08-12T14:04:15;5.38;;;4.88;;
29940;SDS011;16801;53.562;10.038;2023-08-12T14:07:36;9.65;;;4.80;;
29940;SDS011;16801;53.562;10.038;2023-08-12T14:10:57;4.78;;;4.38;;
29940;SDS011;16801;53.562;10.038;2023-08-12T14:14:18;5.90;;;3.70;;
29940;SDS011;16801;53.562;10.038;2023-08-12T14:17:39;4.65;;;4.25;;
29940;SDS011;16801;53.562;10.038;2023-08-12T14:21:01;4.05;;;3.65;;
29940;SDS011;16801;53.562;10.038;2023-08-12T14:24:22;3.92;;;3.60;;
29940;SDS011;16801;53.562;10.038;2023-08-12T14:27:43;4.80;;;4.13;;
29940;SDS011;16801;53.562;10.038;2023-08-12T14:31:04;4.65;;;4.13;;
29940;SDS011;16801;53.562;10.038;2023-08-12T14:34:25;3.47;;;3.17;;
29940;SDS011;16801;53.562;10.038;2023-08-12T14:37:47;4.22;;;3.90;;
29940;SDS011;16801;53.562;10.038;2023-08-12T14:41:08;4.55;;;4.07;;
29940;SDS011;16801;53.562;10.038;2023-08-12T14:44:29;3.90;;;3.60;;
29940;SDS011;16801;53.562;10.038;2023-08-12T14:47:51;5.90;;;5.30;;
29940;SDS011;16801;53.562;10.038;2023-08-12T14:51:12;4.65;;;4.30;;
29940;SDS011;16801;53.562;10.038;2023-08-12T14:54:34;5.28;;;4.78;;
29940;SDS011;16801;53.562;10.038;2023-08-12T14:57:57;6.10;;;5.55;;
29940;SDS011;16801;53.562;10.038;2023-08-12T15:01:18;5.57;;;5.07;;
29940;SDS011;16801;53.562;10.038;2023-08-12T15:04:38;6.50;;;5.60;;
29940;SDS011;16801;53.562;10.038;2023-08-12T15:08:00;6.80;;;5.50;;
29940;SDS011;16801;53.562;10.038;2023-08-12T15:11:22;6.70;;;6.10;;
29940;SDS011;16801;53.562;10.038;2023-08-12T15:14:44;6.15;;;5.43;;
29940;SDS011;16801;53.562;10.038;2023-08-12T15:18:05;6.68;;;6.03;;
29940;SDS011;16801;53.562;10.038;2023-08-12T15:21:26;8.50;;;7.70;;
29940;SDS011;16801;53.562;10.038;2023-08-12T15:24:47;7.68;;;6.82;;
29940;SDS011;16801;53.562;10.038;2023-08-12T15:28:09;9.18;;;8.30;;
29940;SDS011;16801;53.562;10.038;2023-08-12T15:31:30;7.97;;;7.28;;
29940;SDS011;16801;53.562;10.038;2023-08-12T15:34:51;6.60;;;5.95;;
29940;SDS011;16801;53.562;10.038;2023-08-12T15:38:11;8.57;;;7.55;;
29940;SDS011;16801;53.562;10.038;2023-08-12T15:41:33;6.82;;;6.22;;
29940;SDS011;16801;53.562;10.038;2023-08-12T15:44:55;5.65;;;5.15;;
29940;SDS011;16801;53.562;10.038;2023-08-12T15:48:16;6.57;;;5.97;;
29940;SDS011;16801;53.562;10.038;2023-08-12T15:51:37;6.45;;;5.22;;
29940;SDS011;16801;53.562;10.038;2023-08-12T15:54:58;4.90;;;4.50;;
29940;SDS011;16801;53.562;10.038;2023-08-12T15:58:19;6.47;;;5.88;;
29940;SDS011;16801;53.562;10.038;2023-08-12T16:01:41;7.25;;;6.53;;
29940;SDS011;16801;53.562;10.038;2023-08-12T16:05:01;6.43;;;5.82;;
29940;SDS011;16801;53.562;10.038;2023-08-12T16:08:24;6.90;;;6.32;;
29940;SDS011;16801;53.562;10.038;2023-08-12T16:11:45;6.97;;;5.28;;
29940;SDS011;16801;53.562;10.038;2023-08-12T16:15:06;6.70;;;5.68;;
29940;SDS011;16801;53.562;10.038;2023-08-12T16:18:29;6.97;;;5.50;;
29940;SDS011;16801;53.562;10.038;2023-08-12T16:21:50;5.80;;;5.30;;
29940;SDS011;16801;53.562;10.038;2023-08-12T16:25:10;5.35;;;4.95;;
29940;SDS011;16801;53.562;10.038;2023-08-12T16:28:34;6.05;;;5.45;;
29940;SDS011;16801;53.562;10.038;2023-08-12T16:31:55;4.78;;;4.40;;
29940;SDS011;16801;53.562;10.038;2023-08-12T16:35:20;3.67;;;3.13;;
29940;SDS011;16801;53.562;10.038;2023-08-12T16:38:41;2.03;;;1.15;;
29940;SDS011;16801;53.562;10.038;2023-08-12T16:42:04;1.65;;;1.55;;
29940;SDS011;16801;53.562;10.038;2023-08-12T16:45:25;1.58;;;1.48;;
29940;SDS011;16801;53.562;10.038;2023-08-12T16:48:46;1.45;;;1.35;;
29940;SDS011;16801;53.562;10.038;2023-08-12T16:52:08;3.08;;;1.30;;
29940;SDS011;16801;53.562;10.038;2023-08-12T16:55:29;1.42;;;1.33;;
29940;SDS011;16801;53.562;10.038;2023-08-12T16:58:50;1.33;;;1.20;;
29940;SDS011;16801;53.562;10.038;2023-08-12T17:02:11;1.35;;;1.20;;
29940;SDS011;16801;53.562;10.038;2023-08-12T17:05:32;2.03;;;1.83;;
29940;SDS011;16801;53.562;10.038;2023-08-12T17:08:54;1.63;;;1.52;;
29940;SDS011;16801;53.562;10.038;2023-08-12T17:12:15;1.65;;;1.55;;
29940;SDS011;16801;53.562;10.038;2023-08-12T17:15:35;1.92;;;1.83;;
29940;SDS011;16801;53.562;10.038;2023-08-12T17:18:56;2.15;;;1.92;;
29940;SDS011;16801;53.562;10.038;2023-08-12T17:22:18;0.90;;;0.90;;
29940;SDS011;16801;53.562;10.038;2023-08-12T17:25:40;1.10;;;1.00;;
29940;SDS011;16801;53.562;10.038;2023-08-12T17:29:00;1.38;;;1.27;;
29940;SDS011;16801;53.562;10.038;2023-08-12T17:32:21;1.48;;;1.20;;
29940;SDS011;16801;53.562;10.038;2023-08-12T17:35:42;1.45;;;1.35;;
29940;SDS011;16801;53.562;10.038;2023-08-12T17:39:03;2.00;;;1.50;;
29940;SDS011;16801;53.562;10.038;2023-08-12T17:42:25;2.97;;;1.73;;
29940;SDS011;16801;53.562;10.038;2023-08-12T17:45:46;1.60;;;1.27;;
29940;SDS011;16801;53.562;10.038;2023-08-12T17:49:07;1.95;;;1.60;;
29940;SDS011;16801;53.562;10.038;2023-08-12T17:52:28;2.38;;;1.80;;
29940;SDS011;16801;53.562;10.038;2023-08-12T17:55:49;2.00;;;1.80;;
29940;SDS011;16801;53.562;10.038;2023-08-12T17:59:11;1.45;;;1.30;;
29940;SDS011;16801;53.562;10.038;2023-08-12T18:02:32;1.70;;;1.60;;
29940;SDS011;16801;53.562;10.038;2023-08-12T18:05:52;1.75;;;1.55;;
29940;SDS011;16801;53.562;10.038;2023-08-12T18:09:14;1.98;;;1.50;;
29940;SDS011;16801;53.562;10.038;2023-08-12T18:12:35;1.88;;;1.75;;
29940;SDS011;16801;53.562;10.038;2023-08-12T18:15:58;4.82;;;1.70;;
29940;SDS011;16801;53.562;10.038;2023-08-12T18:19:19;2.20;;;2.00;;
29940;SDS011;16801;53.562;10.038;2023-08-12T18:22:40;2.38;;;2.17;;
29940;SDS011;16801;53.562;10.038;2023-08-12T18:26:01;1.85;;;1.75;;
29940;SDS011;16801;53.562;10.038;2023-08-12T18:29:22;2.00;;;1.83;;
29940;SDS011;16801;53.562;10.038;2023-08-12T18:32:44;1.63;;;1.52;;
29940;SDS011;16801;53.562;10.038;2023-08-12T18:36:05;1.70;;;1.60;;
29940;SDS011;16801;53.562;10.038;2023-08-12T18:39:26;2.25;;;1.98;;
29940;SDS011;16801;53.562;10.038;2023-08-12T18:42:47;1.55;;;1.45;;
29940;SDS011;16801;53.562;10.038;2023-08-12T18:46:08;1.40;;;1.30;;
29940;SDS011;16801;53.562;10.038;2023-08-12T18:49:30;1.73;;;1.63;;
29940;SDS011;16801;53.562;10.038;2023-08-12T18:52:51;1.88;;;1.77;;
29940;SDS011;16801;53.562;10.038;2023-08-12T18:56:12;2.05;;;1.70;;
29940;SDS011;16801;53.562;10.038;2023-08-12T18:59:33;2.22;;;2.10;;
29940;SDS011;16801;53.562;10.038;2023-08-12T19:02:54;2.00;;;1.55;;
29940;SDS011;16801;53.562;10.038;2023-08-12T19:06:16;1.10;;;1.00;;
29940;SDS011;16801;53.562;10.038;2023-08-12T19:09:37;2.35;;;1.58;;
29940;SDS011;16801;53.562;10.038;2023-08-12T19:12:58;2.95;;;2.00;;
29940;SDS011;16801;53.562;10.038;2023-08-12T19:16:19;1.60;;;1.50;;
29940;SDS011;16801;53.562;10.038;2023-08-12T19:19:40;2.35;;;1.83;;
29940;SDS011;16801;53.562;10.038;2023-08-12T19:23:01;1.83;;;1.73;;
29940;SDS011;16801;53.562;10.038;2023-08-12T19:26:22;2.35;;;1.60;;
29940;SDS011;16801;53.562;10.038;2023-08-12T19:29:43;1.80;;;1.50;;
29940;SDS011;16801;53.562;10.038;2023-08-12T19:33:04;2.58;;;1.75;;
29940;SDS011;16801;53.562;10.038;2023-08-12T19:36:25;5.20;;;2.50;;
29940;SDS011;16801;53.562;10.038;2023-08-12T19:39:47;2.15;;;1.95;;
29940;SDS011;16801;53.562;10.038;2023-08-12T19:43:09;2.33;;;1.50;;
29940;SDS011;16801;53.562;10.038;2023-08-12T19:46:30;2.40;;;1.65;;
29940;SDS011;16801;53.562;10.038;2023-08-12T19:49:50;2.38;;;1.55;;
29940;SDS011;16801;53.562;10.038;2023-08-12T19:53:11;1.63;;;1.33;;
29940;SDS011;16801;53.562;10.038;2023-08-12T19:56:33;3.83;;;1.67;;